PWSweather.com
Personal Weather Stations
Station Observations
COONRAPIDS
Minneapolis, MN 55433

Minneapolis, MN 55433

Lat: 45.187721, Lon: -93.36828

Elevation: 898

Station Type: Davis Vantage Pro 2

High Low Average
Temperature 22.1°F-5.5°C 9.2°F-12.7°C 15.8°F-9.0°C
Dew Point 9.8°F-12.3°C 2.4°F-16.4°C 6.2°F-14.3°C
Winds 2.3 mph 3.7 kmh Calm Calm Calm SWCalm SW
Wind Gusts 6.9 mph11.1 kmh -- 1.0 mph1.6 kmh
Humidity 76% 51% 66%
Pressure 30.26 in1024.7 mb 30.14 in1020.7 mb -
Precipitation 0.00 in0.0 mm - -
Hour Temp Dew Point Humidity Winds Wind Gusts Pressure Precip Precip Rate Daily Precip Total
12:00 AM 9.3°F-12.6°C 2.4°F-16.4°C 73% Calm Calm -- 30.26 in1024.7 mb - 0.00 in0.0 mm 0.00 in0.0 mm
12:10 AM 9.2°F-12.7°C 2.6°F-16.3°C 74% Calm Calm -- 30.26 in1024.7 mb - 0.00 in0.0 mm 0.00 in0.0 mm
12:20 AM 9.4°F-12.6°C 2.8°F-16.2°C 74% Calm Calm -- 30.25 in1024.4 mb - 0.00 in0.0 mm 0.00 in0.0 mm
12:30 AM 9.6°F-12.4°C 3.0°F-16.1°C 74% Calm Calm -- 30.25 in1024.4 mb - 0.00 in0.0 mm 0.00 in0.0 mm
12:40 AM 9.6°F-12.4°C 3.0°F-16.1°C 74% Calm Calm -- 30.24 in1024.0 mb - 0.00 in0.0 mm 0.00 in0.0 mm
12:50 AM 9.6°F-12.4°C 3.0°F-16.1°C 74% Calm Calm -- 30.24 in1024.0 mb - 0.00 in0.0 mm 0.00 in0.0 mm
01:00 AM 9.6°F-12.4°C 3.0°F-16.1°C 74% Calm Calm -- 30.24 in1024.0 mb - 0.00 in0.0 mm 0.00 in0.0 mm
01:10 AM 9.6°F-12.4°C 3.2°F-16.0°C 75% Calm Calm -- 30.23 in1023.7 mb - 0.00 in0.0 mm 0.00 in0.0 mm
01:20 AM 9.5°F-12.5°C 3.2°F-16.0°C 75% Calm Calm -- 30.23 in1023.7 mb - 0.00 in0.0 mm 0.00 in0.0 mm
01:30 AM 9.9°F-12.3°C 3.8°F-15.7°C 76% Calm Calm -- 30.23 in1023.7 mb - 0.00 in0.0 mm 0.00 in0.0 mm
01:40 AM 10.4°F-12.0°C 4.3°F-15.4°C 76% Calm Calm -- 30.23 in1023.7 mb - 0.00 in0.0 mm 0.00 in0.0 mm
01:50 AM 11.0°F-11.7°C 4.9°F-15.1°C 76% Calm Calm -- 30.23 in1023.7 mb - 0.00 in0.0 mm 0.00 in0.0 mm
02:00 AM 11.6°F-11.3°C 5.5°F-14.7°C 76% Calm Calm -- 30.22 in1023.4 mb - 0.00 in0.0 mm 0.00 in0.0 mm
02:10 AM 12.1°F-11.1°C 5.7°F-14.6°C 75% Calm Calm -- 30.23 in1023.7 mb - 0.00 in0.0 mm 0.00 in0.0 mm
02:20 AM 12.5°F-10.8°C 5.8°F-14.6°C 74% Calm Calm -- 30.22 in1023.4 mb - 0.00 in0.0 mm 0.00 in0.0 mm
02:30 AM 12.8°F-10.7°C 6.0°F-14.4°C 74% Calm Calm -- 30.23 in1023.7 mb - 0.00 in0.0 mm 0.00 in0.0 mm
02:40 AM 12.9°F-10.6°C 6.2°F-14.3°C 74% Calm Calm -- 30.22 in1023.4 mb - 0.00 in0.0 mm 0.00 in0.0 mm
02:50 AM 13.1°F-10.5°C 6.0°F-14.4°C 73% Calm Calm -- 30.22 in1023.4 mb - 0.00 in0.0 mm 0.00 in0.0 mm
03:00 AM 13.2°F-10.4°C 6.2°F-14.3°C 73% Calm Calm 2.3 mph3.7 kmh 30.22 in1023.4 mb - 0.00 in0.0 mm 0.00 in0.0 mm
03:10 AM 13.3°F-10.4°C 6.6°F-14.1°C 74% Calm Calm -- 30.21 in1023.0 mb - 0.00 in0.0 mm 0.00 in0.0 mm
03:20 AM 13.4°F-10.3°C 6.6°F-14.1°C 74% Calm Calm -- 30.21 in1023.0 mb - 0.00 in0.0 mm 0.00 in0.0 mm
03:30 AM 13.3°F-10.4°C 6.6°F-14.1°C 74% Calm Calm -- 30.21 in1023.0 mb - 0.00 in0.0 mm 0.00 in0.0 mm
03:40 AM 13.3°F-10.4°C 6.6°F-14.1°C 74% Calm Calm -- 30.20 in1022.7 mb - 0.00 in0.0 mm 0.00 in0.0 mm
03:50 AM 13.4°F-10.3°C 6.7°F-14.1°C 74% Calm Calm -- 30.20 in1022.7 mb - 0.00 in0.0 mm 0.00 in0.0 mm
04:00 AM 13.5°F-10.3°C 6.8°F-14.0°C 74% Calm Calm -- 30.19 in1022.4 mb - 0.00 in0.0 mm 0.00 in0.0 mm
04:10 AM 13.5°F-10.3°C 6.5°F-14.2°C 73% Calm Calm -- 30.19 in1022.4 mb - 0.00 in0.0 mm 0.00 in0.0 mm
04:20 AM 13.5°F-10.3°C 6.8°F-14.0°C 74% Calm Calm -- 30.19 in1022.4 mb - 0.00 in0.0 mm 0.00 in0.0 mm
04:30 AM 13.6°F-10.2°C 6.8°F-14.0°C 74% Calm Calm -- 30.19 in1022.4 mb - 0.00 in0.0 mm 0.00 in0.0 mm
04:40 AM 13.7°F-10.2°C 6.9°F-13.9°C 74% Calm Calm -- 30.19 in1022.4 mb - 0.00 in0.0 mm 0.00 in0.0 mm
04:50 AM 13.8°F-10.1°C 6.7°F-14.1°C 73% Calm Calm -- 30.19 in1022.4 mb - 0.00 in0.0 mm 0.00 in0.0 mm
05:00 AM 13.9°F-10.1°C 6.8°F-14.0°C 73% Calm Calm -- 30.19 in1022.4 mb - 0.00 in0.0 mm 0.00 in0.0 mm
05:10 AM 14.0°F-10.0°C 6.9°F-13.9°C 73% Calm Calm -- 30.18 in1022.0 mb - 0.00 in0.0 mm 0.00 in0.0 mm
05:20 AM 14.1°F-9.9°C 7.0°F-13.9°C 73% Calm Calm -- 30.18 in1022.0 mb - 0.00 in0.0 mm 0.00 in0.0 mm
05:30 AM 14.1°F-9.9°C 7.0°F-13.9°C 73% Calm Calm -- 30.18 in1022.0 mb - 0.00 in0.0 mm 0.00 in0.0 mm
05:40 AM 14.2°F-9.9°C 7.1°F-13.8°C 73% Calm Calm -- 30.17 in1021.7 mb - 0.00 in0.0 mm 0.00 in0.0 mm
05:50 AM 14.3°F-9.8°C 7.2°F-13.8°C 73% Calm Calm -- 30.17 in1021.7 mb - 0.00 in0.0 mm 0.00 in0.0 mm
06:00 AM 14.4°F-9.8°C 7.3°F-13.7°C 73% Calm Calm -- 30.17 in1021.7 mb - 0.00 in0.0 mm 0.00 in0.0 mm
06:10 AM 14.4°F-9.8°C 7.3°F-13.7°C 73% Calm Calm -- 30.17 in1021.7 mb - 0.00 in0.0 mm 0.00 in0.0 mm
06:20 AM 14.5°F-9.7°C 7.4°F-13.7°C 73% Calm Calm -- 30.16 in1021.3 mb - 0.00 in0.0 mm 0.00 in0.0 mm
06:30 AM 14.6°F-9.7°C 7.2°F-13.8°C 72% Calm Calm -- 30.16 in1021.3 mb - 0.00 in0.0 mm 0.00 in0.0 mm
06:40 AM 14.7°F-9.6°C 7.3°F-13.7°C 72% Calm Calm -- 30.16 in1021.3 mb - 0.00 in0.0 mm 0.00 in0.0 mm
06:50 AM 14.8°F-9.6°C 7.7°F-13.5°C 73% Calm Calm -- 30.16 in1021.3 mb - 0.00 in0.0 mm 0.00 in0.0 mm
07:00 AM 15.0°F-9.4°C 7.9°F-13.4°C 73% Calm Calm -- 30.16 in1021.3 mb - 0.00 in0.0 mm 0.00 in0.0 mm
07:10 AM 15.2°F-9.3°C 8.4°F-13.1°C 74% Calm Calm -- 30.16 in1021.3 mb - 0.00 in0.0 mm 0.00 in0.0 mm
07:20 AM 15.3°F-9.3°C 8.5°F-13.1°C 74% Calm Calm -- 30.16 in1021.3 mb - 0.00 in0.0 mm 0.00 in0.0 mm
07:30 AM 15.3°F-9.3°C 8.5°F-13.1°C 74% Calm Calm -- 30.16 in1021.3 mb - 0.00 in0.0 mm 0.00 in0.0 mm
07:40 AM 15.3°F-9.3°C 8.8°F-12.9°C 75% Calm Calm -- 30.16 in1021.3 mb - 0.00 in0.0 mm 0.00 in0.0 mm
07:50 AM 15.4°F-9.2°C 8.9°F-12.8°C 75% Calm Calm -- 30.16 in1021.3 mb - 0.00 in0.0 mm 0.00 in0.0 mm
08:00 AM 15.4°F-9.2°C 8.9°F-12.8°C 75% Calm Calm -- 30.15 in1021.0 mb - 0.00 in0.0 mm 0.00 in0.0 mm
08:10 AM 15.4°F-9.2°C 8.9°F-12.8°C 75% Calm Calm -- 30.15 in1021.0 mb - 0.00 in0.0 mm 0.00 in0.0 mm
08:20 AM 15.4°F-9.2°C 8.6°F-13.0°C 74% Calm Calm -- 30.16 in1021.3 mb - 0.00 in0.0 mm 0.00 in0.0 mm
08:30 AM 15.5°F-9.2°C 8.7°F-12.9°C 74% Calm Calm -- 30.16 in1021.3 mb - 0.00 in0.0 mm 0.00 in0.0 mm
08:40 AM 15.6°F-9.1°C 8.8°F-12.9°C 74% Calm Calm 1.2 mph1.9 kmh 30.16 in1021.3 mb - 0.00 in0.0 mm 0.00 in0.0 mm
08:50 AM 15.8°F-9.0°C 9.0°F-12.8°C 74% Calm Calm -- 30.16 in1021.3 mb - 0.00 in0.0 mm 0.00 in0.0 mm
09:00 AM 16.0°F-8.9°C 9.2°F-12.7°C 74% Calm Calm -- 30.16 in1021.3 mb - 0.00 in0.0 mm 0.00 in0.0 mm
09:10 AM 16.2°F-8.8°C 9.4°F-12.6°C 74% Calm Calm -- 30.16 in1021.3 mb - 0.00 in0.0 mm 0.00 in0.0 mm
09:20 AM 16.6°F-8.6°C 9.4°F-12.6°C 73% 1.2 mph WNW1.9 kmh WNW 2.3 mph3.7 kmh 30.17 in1021.7 mb - 0.00 in0.0 mm 0.00 in0.0 mm
09:30 AM 16.7°F-8.5°C 9.2°F-12.7°C 72% Calm Calm -- 30.17 in1021.7 mb - 0.00 in0.0 mm 0.00 in0.0 mm
09:40 AM 16.9°F-8.4°C 9.4°F-12.6°C 72% Calm Calm -- 30.17 in1021.7 mb - 0.00 in0.0 mm 0.00 in0.0 mm
09:50 AM 17.3°F-8.2°C 9.8°F-12.3°C 72% Calm Calm -- 30.18 in1022.0 mb - 0.00 in0.0 mm 0.00 in0.0 mm
10:00 AM 17.6°F-8.0°C 9.8°F-12.3°C 71% 1.2 mph W1.9 kmh W 4.6 mph7.4 kmh 30.18 in1022.0 mb - 0.00 in0.0 mm 0.00 in0.0 mm
10:10 AM 17.6°F-8.0°C 9.5°F-12.5°C 70% 1.2 mph NW1.9 kmh NW 3.5 mph5.6 kmh 30.18 in1022.0 mb - 0.00 in0.0 mm 0.00 in0.0 mm
10:20 AM 17.9°F-7.8°C 9.4°F-12.6°C 69% 1.2 mph NW1.9 kmh NW 2.3 mph3.7 kmh 30.18 in1022.0 mb - 0.00 in0.0 mm 0.00 in0.0 mm
10:30 AM 18.2°F-7.7°C 9.4°F-12.6°C 68% Calm Calm 2.3 mph3.7 kmh 30.18 in1022.0 mb - 0.00 in0.0 mm 0.00 in0.0 mm
10:40 AM 18.6°F-7.4°C 9.8°F-12.3°C 68% Calm Calm 5.8 mph9.3 kmh 30.19 in1022.4 mb - 0.00 in0.0 mm 0.00 in0.0 mm
10:50 AM 18.9°F-7.3°C 9.7°F-12.4°C 67% 1.2 mph WNW1.9 kmh WNW 2.3 mph3.7 kmh 30.19 in1022.4 mb - 0.00 in0.0 mm 0.00 in0.0 mm
11:00 AM 19.2°F-7.1°C 9.7°F-12.4°C 66% 1.2 mph NW1.9 kmh NW 2.3 mph3.7 kmh 30.19 in1022.4 mb - 0.00 in0.0 mm 0.00 in0.0 mm
11:10 AM 19.0°F-7.2°C 9.2°F-12.7°C 65% 2.3 mph NW3.7 kmh NW 6.9 mph11.1 kmh 30.19 in1022.4 mb - 0.00 in0.0 mm 0.00 in0.0 mm
11:20 AM 18.9°F-7.3°C 8.7°F-12.9°C 64% 2.3 mph NNW3.7 kmh NNW 3.5 mph5.6 kmh 30.18 in1022.0 mb - 0.00 in0.0 mm 0.00 in0.0 mm
11:30 AM 18.9°F-7.3°C 8.4°F-13.1°C 63% 2.3 mph NW3.7 kmh NW 3.5 mph5.6 kmh 30.18 in1022.0 mb - 0.00 in0.0 mm 0.00 in0.0 mm
11:40 AM 19.2°F-7.1°C 8.6°F-13.0°C 63% 1.2 mph NW1.9 kmh NW 3.5 mph5.6 kmh 30.17 in1021.7 mb - 0.00 in0.0 mm 0.00 in0.0 mm
11:50 AM 19.2°F-7.1°C 8.3°F-13.2°C 62% Calm Calm -- 30.17 in1021.7 mb - 0.00 in0.0 mm 0.00 in0.0 mm
12:00 PM 19.4°F-7.0°C 8.5°F-13.1°C 62% Calm Calm 2.3 mph3.7 kmh 30.17 in1021.7 mb - 0.00 in0.0 mm 0.00 in0.0 mm
12:10 PM 19.4°F-7.0°C 8.1°F-13.3°C 61% 1.2 mph NW1.9 kmh NW 3.5 mph5.6 kmh 30.17 in1021.7 mb - 0.00 in0.0 mm 0.00 in0.0 mm
12:20 PM 19.6°F-6.9°C 8.3°F-13.2°C 61% Calm Calm 3.5 mph5.6 kmh 30.16 in1021.3 mb - 0.00 in0.0 mm 0.00 in0.0 mm
12:30 PM 19.8°F-6.8°C 8.6°F-13.0°C 61% 1.2 mph NNW1.9 kmh NNW 3.5 mph5.6 kmh 30.16 in1021.3 mb - 0.00 in0.0 mm 0.00 in0.0 mm
12:40 PM 20.1°F-6.6°C 8.4°F-13.1°C 60% Calm Calm -- 30.15 in1021.0 mb - 0.00 in0.0 mm 0.00 in0.0 mm
12:50 PM 20.5°F-6.4°C 8.8°F-12.9°C 60% Calm Calm 3.5 mph5.6 kmh 30.14 in1020.7 mb - 0.00 in0.0 mm 0.00 in0.0 mm
01:00 PM 20.3°F-6.5°C 8.2°F-13.2°C 59% Calm Calm 5.8 mph9.3 kmh 30.15 in1021.0 mb - 0.00 in0.0 mm 0.00 in0.0 mm
01:10 PM 20.4°F-6.4°C 8.3°F-13.2°C 59% 1.2 mph NW1.9 kmh NW 3.5 mph5.6 kmh 30.15 in1021.0 mb - 0.00 in0.0 mm 0.00 in0.0 mm
01:20 PM 20.3°F-6.5°C 7.9°F-13.4°C 58% Calm Calm 3.5 mph5.6 kmh 30.14 in1020.7 mb - 0.00 in0.0 mm 0.00 in0.0 mm
01:30 PM 20.4°F-6.4°C 8.0°F-13.3°C 58% 1.2 mph NNW1.9 kmh NNW 3.5 mph5.6 kmh 30.14 in1020.7 mb - 0.00 in0.0 mm 0.00 in0.0 mm
01:40 PM 20.2°F-6.6°C 8.1°F-13.3°C 59% Calm Calm 3.5 mph5.6 kmh 30.15 in1021.0 mb - 0.00 in0.0 mm 0.00 in0.0 mm
01:50 PM 20.7°F-6.3°C 8.6°F-13.0°C 59% 1.2 mph N1.9 kmh N 3.5 mph5.6 kmh 30.15 in1021.0 mb - 0.00 in0.0 mm 0.00 in0.0 mm
02:00 PM 21.4°F-5.9°C 8.9°F-12.8°C 58% 2.3 mph NW3.7 kmh NW 5.8 mph9.3 kmh 30.14 in1020.7 mb - 0.00 in0.0 mm 0.00 in0.0 mm
02:10 PM 21.6°F-5.8°C 8.7°F-12.9°C 57% 1.2 mph NW1.9 kmh NW 3.5 mph5.6 kmh 30.14 in1020.7 mb - 0.00 in0.0 mm 0.00 in0.0 mm
02:20 PM 21.7°F-5.7°C 8.8°F-12.9°C 57% 1.2 mph NW1.9 kmh NW 5.8 mph9.3 kmh 30.14 in1020.7 mb - 0.00 in0.0 mm 0.00 in0.0 mm
02:30 PM 21.3°F-5.9°C 8.4°F-13.1°C 57% 1.2 mph W1.9 kmh W 3.5 mph5.6 kmh 30.14 in1020.7 mb - 0.00 in0.0 mm 0.00 in0.0 mm
02:40 PM 21.4°F-5.9°C 8.5°F-13.1°C 57% Calm Calm -- 30.14 in1020.7 mb - 0.00 in0.0 mm 0.00 in0.0 mm
02:50 PM 21.5°F-5.8°C 8.2°F-13.2°C 56% 1.2 mph NW1.9 kmh NW 1.2 mph1.9 kmh 30.14 in1020.7 mb - 0.00 in0.0 mm 0.00 in0.0 mm
03:00 PM 21.9°F-5.6°C 8.6°F-13.0°C 56% 2.3 mph W3.7 kmh W 3.5 mph5.6 kmh 30.14 in1020.7 mb - 0.00 in0.0 mm 0.00 in0.0 mm
03:10 PM 22.1°F-5.5°C 8.8°F-12.9°C 56% Calm Calm -- 30.14 in1020.7 mb - 0.00 in0.0 mm 0.00 in0.0 mm
03:20 PM 21.7°F-5.7°C 7.2°F-13.8°C 53% 2.3 mph NW3.7 kmh NW 3.5 mph5.6 kmh 30.14 in1020.7 mb - 0.00 in0.0 mm 0.00 in0.0 mm
03:30 PM 21.3°F-5.9°C 7.2°F-13.8°C 54% 1.2 mph WNW1.9 kmh WNW 4.6 mph7.4 kmh 30.15 in1021.0 mb - 0.00 in0.0 mm 0.00 in0.0 mm
03:40 PM 21.2°F-6.0°C 6.3°F-14.3°C 52% 1.2 mph NNW1.9 kmh NNW 3.5 mph5.6 kmh 30.15 in1021.0 mb - 0.00 in0.0 mm 0.00 in0.0 mm
03:50 PM 21.1°F-6.1°C 5.8°F-14.6°C 51% 2.3 mph NW3.7 kmh NW 3.5 mph5.6 kmh 30.15 in1021.0 mb - 0.00 in0.0 mm 0.00 in0.0 mm
04:00 PM 21.2°F-6.0°C 6.3°F-14.3°C 52% Calm Calm 3.5 mph5.6 kmh 30.15 in1021.0 mb - 0.00 in0.0 mm 0.00 in0.0 mm
04:10 PM 21.1°F-6.1°C 6.2°F-14.3°C 52% Calm Calm -- 30.16 in1021.3 mb - 0.00 in0.0 mm 0.00 in0.0 mm
04:20 PM 20.8°F-6.2°C 5.9°F-14.5°C 52% 1.2 mph NNW1.9 kmh NNW 2.3 mph3.7 kmh 30.17 in1021.7 mb - 0.00 in0.0 mm 0.00 in0.0 mm
04:30 PM 20.6°F-6.3°C 5.7°F-14.6°C 52% 1.2 mph NW1.9 kmh NW 5.8 mph9.3 kmh 30.17 in1021.7 mb - 0.00 in0.0 mm 0.00 in0.0 mm
04:40 PM 20.1°F-6.6°C 5.7°F-14.6°C 53% 2.3 mph NW3.7 kmh NW 3.5 mph5.6 kmh 30.17 in1021.7 mb - 0.00 in0.0 mm 0.00 in0.0 mm
04:50 PM 19.8°F-6.8°C 6.2°F-14.3°C 55% 2.3 mph N3.7 kmh N 4.6 mph7.4 kmh 30.16 in1021.3 mb - 0.00 in0.0 mm 0.00 in0.0 mm
05:00 PM 19.4°F-7.0°C 6.3°F-14.3°C 56% 2.3 mph NNW3.7 kmh NNW 3.5 mph5.6 kmh 30.18 in1022.0 mb - 0.00 in0.0 mm 0.00 in0.0 mm
05:10 PM 19.0°F-7.2°C 5.9°F-14.5°C 56% Calm Calm 1.2 mph1.9 kmh 30.18 in1022.0 mb - 0.00 in0.0 mm 0.00 in0.0 mm
05:20 PM 18.5°F-7.5°C 5.4°F-14.8°C 56% 1.2 mph NW1.9 kmh NW 4.6 mph7.4 kmh 30.18 in1022.0 mb - 0.00 in0.0 mm 0.00 in0.0 mm
05:30 PM 17.9°F-7.8°C 4.8°F-15.1°C 56% 2.3 mph NW3.7 kmh NW 3.5 mph5.6 kmh 30.19 in1022.4 mb - 0.00 in0.0 mm 0.00 in0.0 mm
05:40 PM 17.2°F-8.2°C 4.2°F-15.4°C 56% 1.2 mph N1.9 kmh N 4.6 mph7.4 kmh 30.19 in1022.4 mb - 0.00 in0.0 mm 0.00 in0.0 mm
05:50 PM 16.8°F-8.4°C 3.8°F-15.7°C 56% 1.2 mph NW1.9 kmh NW 2.3 mph3.7 kmh 30.19 in1022.4 mb - 0.00 in0.0 mm 0.00 in0.0 mm
06:00 PM 16.4°F-8.7°C 3.8°F-15.7°C 57% 1.2 mph NNW1.9 kmh NNW 2.3 mph3.7 kmh 30.19 in1022.4 mb - 0.00 in0.0 mm 0.00 in0.0 mm
06:10 PM 16.2°F-8.8°C 3.6°F-15.8°C 57% Calm Calm -- 30.20 in1022.7 mb - 0.00 in0.0 mm 0.00 in0.0 mm
06:20 PM 16.0°F-8.9°C 3.8°F-15.7°C 58% Calm Calm 3.5 mph5.6 kmh 30.20 in1022.7 mb - 0.00 in0.0 mm 0.00 in0.0 mm
06:30 PM 15.9°F-8.9°C 4.1°F-15.5°C 59% 2.3 mph WNW3.7 kmh WNW 4.6 mph7.4 kmh 30.21 in1023.0 mb - 0.00 in0.0 mm 0.00 in0.0 mm
06:40 PM 15.9°F-8.9°C 3.7°F-15.7°C 58% Calm Calm 2.3 mph3.7 kmh 30.21 in1023.0 mb - 0.00 in0.0 mm 0.00 in0.0 mm
06:50 PM 15.8°F-9.0°C 4.0°F-15.6°C 59% 1.2 mph WNW1.9 kmh WNW 3.5 mph5.6 kmh 30.21 in1023.0 mb - 0.00 in0.0 mm 0.00 in0.0 mm
07:00 PM 15.8°F-9.0°C 4.4°F-15.3°C 60% 2.3 mph NW3.7 kmh NW 6.9 mph11.1 kmh 30.21 in1023.0 mb - 0.00 in0.0 mm 0.00 in0.0 mm
07:10 PM 15.8°F-9.0°C 4.4°F-15.3°C 60% Calm Calm 2.3 mph3.7 kmh 30.20 in1022.7 mb - 0.00 in0.0 mm 0.00 in0.0 mm
07:20 PM 15.9°F-8.9°C 4.4°F-15.3°C 60% Calm Calm -- 30.20 in1022.7 mb - 0.00 in0.0 mm 0.00 in0.0 mm
07:30 PM 15.9°F-8.9°C 4.4°F-15.3°C 60% Calm Calm 3.5 mph5.6 kmh 30.21 in1023.0 mb - 0.00 in0.0 mm 0.00 in0.0 mm
07:40 PM 15.9°F-8.9°C 4.4°F-15.3°C 60% Calm Calm 2.3 mph3.7 kmh 30.21 in1023.0 mb - 0.00 in0.0 mm 0.00 in0.0 mm
07:50 PM 15.9°F-8.9°C 4.4°F-15.3°C 60% 1.2 mph NNW1.9 kmh NNW 3.5 mph5.6 kmh 30.21 in1023.0 mb - 0.00 in0.0 mm 0.00 in0.0 mm
08:00 PM 15.7°F-9.1°C 4.3°F-15.4°C 60% 1.2 mph NW1.9 kmh NW 5.8 mph9.3 kmh 30.21 in1023.0 mb - 0.00 in0.0 mm 0.00 in0.0 mm
08:10 PM 15.5°F-9.2°C 3.7°F-15.7°C 59% Calm Calm -- 30.21 in1023.0 mb - 0.00 in0.0 mm 0.00 in0.0 mm
08:20 PM 15.4°F-9.2°C 3.6°F-15.8°C 59% Calm Calm -- 30.21 in1023.0 mb - 0.00 in0.0 mm 0.00 in0.0 mm
08:30 PM 15.3°F-9.3°C 3.9°F-15.6°C 60% Calm Calm -- 30.21 in1023.0 mb - 0.00 in0.0 mm 0.00 in0.0 mm
08:40 PM 15.1°F-9.4°C 3.7°F-15.7°C 60% Calm Calm -- 30.21 in1023.0 mb - 0.00 in0.0 mm 0.00 in0.0 mm
08:50 PM 14.9°F-9.5°C 3.5°F-15.8°C 60% Calm Calm -- 30.21 in1023.0 mb - 0.00 in0.0 mm 0.00 in0.0 mm
09:00 PM 14.7°F-9.6°C 3.3°F-15.9°C 60% Calm Calm -- 30.22 in1023.4 mb - 0.00 in0.0 mm 0.00 in0.0 mm
09:10 PM 14.5°F-9.7°C 3.5°F-15.8°C 61% Calm Calm -- 30.22 in1023.4 mb - 0.00 in0.0 mm 0.00 in0.0 mm
09:20 PM 14.3°F-9.8°C 3.3°F-15.9°C 61% Calm Calm -- 30.23 in1023.7 mb - 0.00 in0.0 mm 0.00 in0.0 mm
09:30 PM 14.1°F-9.9°C 3.4°F-15.9°C 62% Calm Calm -- 30.23 in1023.7 mb - 0.00 in0.0 mm 0.00 in0.0 mm
09:40 PM 13.9°F-10.1°C 3.3°F-15.9°C 62% Calm Calm -- 30.23 in1023.7 mb - 0.00 in0.0 mm 0.00 in0.0 mm
09:50 PM 13.8°F-10.1°C 3.2°F-16.0°C 62% Calm Calm -- 30.23 in1023.7 mb - 0.00 in0.0 mm 0.00 in0.0 mm
10:00 PM 13.6°F-10.2°C 3.0°F-16.1°C 62% Calm Calm -- 30.23 in1023.7 mb - 0.00 in0.0 mm 0.00 in0.0 mm
10:10 PM 13.4°F-10.3°C 2.8°F-16.2°C 62% Calm Calm -- 30.23 in1023.7 mb - 0.00 in0.0 mm 0.00 in0.0 mm
10:20 PM 13.2°F-10.4°C 2.9°F-16.2°C 63% Calm Calm -- 30.23 in1023.7 mb - 0.00 in0.0 mm 0.00 in0.0 mm
10:30 PM 12.8°F-10.7°C 2.9°F-16.2°C 64% Calm Calm -- 30.23 in1023.7 mb - 0.00 in0.0 mm 0.00 in0.0 mm
10:40 PM 12.5°F-10.8°C 2.6°F-16.3°C 64% Calm Calm -- 30.23 in1023.7 mb - 0.00 in0.0 mm 0.00 in0.0 mm
10:50 PM 12.2°F-11.0°C 2.7°F-16.3°C 65% Calm Calm -- 30.24 in1024.0 mb - 0.00 in0.0 mm 0.00 in0.0 mm
11:00 PM 12.1°F-11.1°C 2.6°F-16.3°C 65% Calm Calm -- 30.23 in1023.7 mb - 0.00 in0.0 mm 0.00 in0.0 mm
11:10 PM 11.8°F-11.2°C 2.6°F-16.3°C 66% Calm Calm -- 30.23 in1023.7 mb - 0.00 in0.0 mm 0.00 in0.0 mm
11:20 PM 11.6°F-11.3°C 2.4°F-16.4°C 66% Calm Calm -- 30.23 in1023.7 mb - 0.00 in0.0 mm 0.00 in0.0 mm
11:30 PM 11.3°F-11.5°C 2.5°F-16.4°C 67% Calm Calm -- 30.24 in1024.0 mb - 0.00 in0.0 mm 0.00 in0.0 mm
11:40 PM 11.2°F-11.6°C 2.4°F-16.4°C 67% Calm Calm -- 30.25 in1024.4 mb - 0.00 in0.0 mm 0.00 in0.0 mm
11:50 PM 11.3°F-11.5°C 2.4°F-16.4°C 67% Calm Calm -- 30.24 in1024.0 mb - 0.00 in0.0 mm 0.00 in0.0 mm